Dorchester, Wisconsin
Current Conditions -  °F | °C
As of 8:35 AM on Saturday 22 Nov 2014 (Local Time) from KMDZ Reporting Station
Moderate Fog Moderate Fog  
Wind Chill: 24°   Ceiling: 200
Heat Index: 32°   Visibility: 0.5mi
Dew Point: 31°   Wind: 9mph
Humidity: 98%   Direction: 220°SW
Pressure: 29.79"   Gusts: NA
Location:  45°N, 90.34°W
Report Text: KMDZ 221435Z AUTO 22008KT 1/2SM FG OVC002 00/00 A2979 RMK AO2 T10021005
Loading
Personal Weather Stations






























Interactive Weather Map New forecast layout! Learn more

10-Day Weather Forecast

Advertisements
Track Severe Weather on mobile